FW3590 Weather Reports


time (UTC)temp
C
wind
direction
speed
KPH
gust
KPH
rain 1hr
cm
rain 24hr
cm
rain mn
cm
humidity
%
barometer
mb
20191016054531 13 248 19.3 30.6 0.08 2.39 1.27 93 1007.7
20191016053040 13 277 20.9 37.0 0.08 2.36 1.24 93 1007.5
20191016051524 13 280 37.0 43.5 0.08 2.34 1.22 91 1007.5
20191016044515 13 267 16.1 24.1 0.05 2.31 1.17 94 1006.9
20191016043020 13 259 14.5 20.9 0.03 2.26 1.14 93 1007.0
20191016041514 13 264 14.5 24.1 0.03 2.26 1.14 93 1007.0
20191016040026 13 277 20.9 27.4 0.05 2.26 1.14 93 1006.9
20191016034514 13 273 22.5 27.4 0.05 2.26 1.14 94 1006.8
20191016033008 13 295 12.9 17.7 0.03 2.24 1.12 95 1006.8
20191016031510 13 286 17.7 22.5 0.03 2.24 1.12 94 1006.6
20191016030002 13 272 17.7 25.7 0.03 2.21 1.09 94 1006.8
20191016024708 13 278 20.9 27.4 0.05 2.21 1.09 94 1006.8
20191016023223 13 276 20.9 25.7 0.13 2.21 1.09 94 1006.6
20191016021653 13 277 19.3 25.7 0.15 2.21 1.09 94 1006.7
20191016020344 14 277 20.9 25.7 0.18 2.21 1.09 94 1006.7
20191016014716 14 284 24.1 29.0 0.15 2.16 1.04 94 1006.6
20191016013249 14 282 22.5 27.4 0.08 2.11 0.99 94 1006.5
20191016011729 14 303 17.7 25.7 0.05 2.06 0.94 94 1006.4
20191016010309 14 293 22.5 29.0 0.05 2.03 0.89 94 1006.3
20191016004634 14 294 22.5 27.4 0.08 2.03 0.89 94 1006.2
20191016003141 14 285 19.3 25.7 0.15 2.03 0.89 94 1006.3
20191016001652 14 284 17.7 25.7 0.23 2.01 0.89 94 1006.3
20191016000127 15 282 19.3 25.7 0.33 1.98 0.86 94 1006.2
20191015234737 15 295 20.9 27.4 0.43 1.93 0.81 94 1006.2
20191015233117 15 296 19.3 25.7 0.51 1.88 0.76 94 1006.1
20191015231634 15 289 14.5 16.1 0.51 1.75 0.64 94 1006.1
20191015230042 15 304 16.1 20.9 0.53 1.65 0.51 94 1006.0
20191015224623 15 312 12.9 17.7 0.64 1.52 0.41 94 1005.8
20191015223044 15 311 16.1 24.1 0.89 1.37 0.25 94 1005.5
20191015221541 15 287 16.1 20.9 1.22 1.22 0.10 94 1005.5
20191015220045 15 293 17.7 24.1 1.09 1.09 1.09 94 1005.6
20191015214534 15 303 6.4 33.8 0.86 0.86 0.86 94 1005.4
20191015213043 15 299 25.7 38.6 0.51 0.51 0.51 94 1005.2
20191015211535 16 294 20.9 27.4 0.00 0.00 0.00 87 1004.9
20191015210030 16 330 20.9 25.7 0.00 0.00 0.00 86 1004.5
20191015204535 16 343 16.1 22.5 0.00 0.00 0.00 88 1004.5
20191015203052 16 321 0.0 6.4 0.00 0.00 0.00 90 1004.9
20191015201621 16 331 0.0 0.0 0.00 0.00 0.00 91 1004.8
20191015200046 16 331 0.0 0.0 0.00 0.00 0.00 92 1004.7
20191015194556 16 331 0.0 0.0 0.00 0.00 0.00 91 1004.7
20191015193028 16 331 0.0 0.0 0.00 0.00 0.00 91 1004.9
20191015191530 16 331 0.0 0.0 0.00 0.00 0.00 89 1004.9
20191015190029 16 331 0.0 0.0 0.00 0.00 0.00 89 1005.1
20191015184539 16 331 0.0 0.0 0.00 0.00 0.00 90 1005.1
20191015183021 16 331 0.0 0.0 0.00 0.00 0.00 89 1005.2
20191015181549 16 331 0.0 0.0 0.00 0.00 0.00 89 1005.1
20191015180022 17 331 0.0 0.0 0.00 0.00 0.00 88 1005.2
20191015174528 17 331 0.0 0.0 0.00 0.00 0.00 88 1005.2
20191015173109 17 331 0.0 0.0 0.00 0.00 0.00 88 1005.1
20191015171521 17 331 0.0 0.0 0.00 0.00 0.00 87 1005.1
20191015170023 17 331 0.0 0.0 0.00 0.00 0.00 86 1005.0
20191015164542 17 331 0.0 0.0 0.00 0.00 0.00 86 1004.9
20191015163031 17 331 0.0 0.0 0.00 0.00 0.00 83 1004.9
20191015161519 18 331 0.0 0.0 0.00 0.00 0.00 83 1004.9
20191015160026 18 331 0.0 0.0 0.00 0.00 0.00 82 1004.8
20191015154531 18 331 0.0 0.0 0.00 0.00 0.00 81 1004.9
20191015153047 18 331 0.0 0.0 0.00 0.00 0.00 82 1004.9
20191015151512 18 331 0.0 0.0 0.00 0.00 0.00 80 1004.8
20191015150028 19 333 0.0 0.0 0.00 0.00 0.00 77 1004.6
20191015144511 19 333 0.0 0.0 0.00 0.00 0.00 76 1004.7
20191015143022 19 337 1.6 4.8 0.00 0.00 0.00 77 1004.7
20191015141507 20 346 0.0 4.8 0.00 0.00 0.00 73 1004.7
20191015140033 20 338 0.0 0.0 0.00 0.00 0.00 72 1004.7
20191015134504 20 335 9.7 14.5 0.00 0.00 0.00 75 1004.7
20191015133021 20 311 0.0 0.0 0.00 0.00 0.00 75 1004.7
20191015131739 19 292 0.0 0.0 0.00 0.00 0.00 75 1004.8
20191015130257 19 292 0.0 6.4 0.00 0.00 0.00 75 1004.9
20191015124645 18 293 4.8 12.9 0.00 0.00 0.00 77 1005.0
20191015123140 18 307 6.4 12.9 0.00 0.00 0.00 78 1005.1
20191015121756 18 301 6.4 16.1 0.00 0.00 0.00 79 1005.0
20191015120143 18 282 8.0 14.5 0.00 0.00 0.00 80 1005.2
20191015114718 18 281 9.7 12.9 0.00 0.00 0.00 82 1005.2
20191015113204 18 282 6.4 9.7 0.00 0.00 0.00 82 1005.1
20191015111617 18 280 4.8 14.5 0.00 0.00 0.00 80 1005.1
20191015110128 20 270 4.8 11.3 0.00 0.00 0.00 75 1005.1
20191015104646 18 307 0.0 3.2 0.00 0.00 0.00 77 1005.0
20191015103311 18 253 3.2 6.4 0.00 0.00 0.00 78 1005.3
20191015101558 18 243 0.0 1.6 0.00 0.00 0.00 78 1005.5
20191015100153 17 243 0.0 4.8 0.00 0.00 0.00 80 1005.6
20191015094715 17 242 1.6 6.4 0.00 0.00 0.00 81 1005.7
20191015093134 18 242 0.0 8.0 0.00 0.00 0.00 76 1005.7
20191015091512 18 220 0.0 9.7 0.00 0.00 0.00 77 1005.7
20191015090032 18 218 1.6 14.5 0.00 0.00 0.00 79 1005.8
20191015084655 17 186 1.6 6.4 0.00 0.00 0.00 82 1005.6
20191015083148 16 104 0.0 0.0 0.00 0.00 0.00 85 1005.3
20191015081707 16 105 0.0 0.0 0.00 0.00 0.00 86 1005.5
20191015080114 15 105 0.0 0.0 0.00 0.00 0.00 85 1005.6
20191015074631 16 130 0.0 0.0 0.00 0.00 0.00 84 1005.6
20191015073132 15 128 0.0 0.0 0.00 0.00 0.00 85 1005.4
20191015071723 15 129 0.0 0.0 0.00 0.00 0.00 85 1005.4
20191015070131 15 142 1.6 9.7 0.00 0.00 0.00 85 1005.5
20191015070038 15 143 3.2 9.7 0.00 0.00 0.00 85 1005.5
20191015064529 15 141 0.0 8.0 0.00 0.00 0.00 86 1005.5
20191015063039 15 133 0.0 11.3 0.00 0.00 0.00 85 1005.4
20191015061550 15 136 4.8 11.3 0.00 0.00 0.00 86 1005.4
20191015060042 14 163 0.0 9.7 0.00 0.00 0.00 88 1005.5